sensor_id;sensor_type;location;lat;lon;timestamp;P1;durP1;ratioP1;P2;durP2;ratioP2
70132;SDS011;57495;49.922;7.966;2023-08-17T00:00:10;5.75;;;1.40;;
70132;SDS011;57495;49.922;7.966;2023-08-17T00:02:14;6.47;;;1.33;;
70132;SDS011;57495;49.922;7.966;2023-08-17T00:04:15;4.95;;;1.10;;
70132;SDS011;57495;49.922;7.966;2023-08-17T00:06:17;4.80;;;1.20;;
70132;SDS011;57495;49.922;7.966;2023-08-17T00:08:19;3.03;;;1.30;;
70132;SDS011;57495;49.922;7.966;2023-08-17T00:10:20;5.53;;;1.63;;
70132;SDS011;57495;49.922;7.966;2023-08-17T00:12:22;4.43;;;1.15;;
70132;SDS011;57495;49.922;7.966;2023-08-17T00:14:25;4.50;;;1.27;;
70132;SDS011;57495;49.922;7.966;2023-08-17T00:16:27;3.63;;;1.07;;
70132;SDS011;57495;49.922;7.966;2023-08-17T00:18:28;4.07;;;1.42;;
70132;SDS011;57495;49.922;7.966;2023-08-17T00:20:30;5.22;;;1.30;;
70132;SDS011;57495;49.922;7.966;2023-08-17T00:22:31;5.28;;;1.30;;
70132;SDS011;57495;49.922;7.966;2023-08-17T00:24:33;5.47;;;1.40;;
70132;SDS011;57495;49.922;7.966;2023-08-17T00:26:35;4.33;;;1.17;;
70132;SDS011;57495;49.922;7.966;2023-08-17T00:28:36;4.10;;;1.35;;
70132;SDS011;57495;49.922;7.966;2023-08-17T00:30:39;6.80;;;1.33;;
70132;SDS011;57495;49.922;7.966;2023-08-17T00:32:40;8.95;;;2.15;;
70132;SDS011;57495;49.922;7.966;2023-08-17T00:34:42;3.90;;;1.70;;
70132;SDS011;57495;49.922;7.966;2023-08-17T00:36:43;4.30;;;1.40;;
70132;SDS011;57495;49.922;7.966;2023-08-17T00:38:45;4.65;;;1.40;;
70132;SDS011;57495;49.922;7.966;2023-08-17T00:40:47;5.72;;;1.63;;
70132;SDS011;57495;49.922;7.966;2023-08-17T00:42:48;6.82;;;1.95;;
70132;SDS011;57495;49.922;7.966;2023-08-17T00:44:50;7.50;;;1.98;;
70132;SDS011;57495;49.922;7.966;2023-08-17T00:46:53;5.00;;;1.83;;
70132;SDS011;57495;49.922;7.966;2023-08-17T00:48:54;8.27;;;2.45;;
70132;SDS011;57495;49.922;7.966;2023-08-17T00:50:58;8.05;;;2.40;;
70132;SDS011;57495;49.922;7.966;2023-08-17T00:52:59;6.35;;;2.30;;
70132;SDS011;57495;49.922;7.966;2023-08-17T00:55:02;4.75;;;2.58;;
70132;SDS011;57495;49.922;7.966;2023-08-17T00:57:04;4.83;;;2.00;;
70132;SDS011;57495;49.922;7.966;2023-08-17T00:59:06;5.38;;;2.78;;
70132;SDS011;57495;49.922;7.966;2023-08-17T01:01:07;9.55;;;3.33;;
70132;SDS011;57495;49.922;7.966;2023-08-17T01:03:10;10.37;;;3.30;;
70132;SDS011;57495;49.922;7.966;2023-08-17T01:05:12;7.60;;;3.00;;
70132;SDS011;57495;49.922;7.966;2023-08-17T01:07:13;5.93;;;2.85;;
70132;SDS011;57495;49.922;7.966;2023-08-17T01:09:18;5.80;;;3.13;;
70132;SDS011;57495;49.922;7.966;2023-08-17T01:11:22;6.28;;;3.03;;
70132;SDS011;57495;49.922;7.966;2023-08-17T01:13:31;6.80;;;3.40;;
70132;SDS011;57495;49.922;7.966;2023-08-17T01:15:39;6.90;;;3.47;;
70132;SDS011;57495;49.922;7.966;2023-08-17T01:17:44;6.22;;;3.58;;
70132;SDS011;57495;49.922;7.966;2023-08-17T01:19:54;7.00;;;2.90;;
70132;SDS011;57495;49.922;7.966;2023-08-17T01:22:00;5.60;;;2.47;;
70132;SDS011;57495;49.922;7.966;2023-08-17T01:24:06;5.37;;;2.90;;
70132;SDS011;57495;49.922;7.966;2023-08-17T01:26:08;6.10;;;3.30;;
70132;SDS011;57495;49.922;7.966;2023-08-17T01:28:10;6.57;;;2.92;;
70132;SDS011;57495;49.922;7.966;2023-08-17T01:30:12;7.15;;;3.00;;
70132;SDS011;57495;49.922;7.966;2023-08-17T01:32:16;7.50;;;3.55;;
70132;SDS011;57495;49.922;7.966;2023-08-17T01:34:24;5.63;;;3.50;;
70132;SDS011;57495;49.922;7.966;2023-08-17T01:36:30;8.07;;;4.00;;
70132;SDS011;57495;49.922;7.966;2023-08-17T01:38:34;8.05;;;3.45;;
70132;SDS011;57495;49.922;7.966;2023-08-17T01:40:39;6.47;;;2.80;;
70132;SDS011;57495;49.922;7.966;2023-08-17T01:42:42;6.05;;;4.03;;
70132;SDS011;57495;49.922;7.966;2023-08-17T01:44:44;8.23;;;5.50;;
70132;SDS011;57495;49.922;7.966;2023-08-17T01:46:45;10.25;;;5.40;;
70132;SDS011;57495;49.922;7.966;2023-08-17T01:48:46;7.97;;;5.03;;
70132;SDS011;57495;49.922;7.966;2023-08-17T01:50:47;12.27;;;4.97;;
70132;SDS011;57495;49.922;7.966;2023-08-17T01:52:48;7.78;;;4.10;;
70132;SDS011;57495;49.922;7.966;2023-08-17T01:54:51;6.35;;;3.90;;
70132;SDS011;57495;49.922;7.966;2023-08-17T01:56:53;8.57;;;3.90;;
70132;SDS011;57495;49.922;7.966;2023-08-17T01:58:54;9.10;;;4.20;;
70132;SDS011;57495;49.922;7.966;2023-08-17T02:00:55;7.55;;;3.97;;
70132;SDS011;57495;49.922;7.966;2023-08-17T02:02:57;7.60;;;3.60;;
70132;SDS011;57495;49.922;7.966;2023-08-17T02:04:57;7.20;;;3.87;;
70132;SDS011;57495;49.922;7.966;2023-08-17T02:06:59;7.25;;;4.20;;
70132;SDS011;57495;49.922;7.966;2023-08-17T02:09:00;9.85;;;4.80;;
70132;SDS011;57495;49.922;7.966;2023-08-17T02:11:02;6.93;;;4.60;;
70132;SDS011;57495;49.922;7.966;2023-08-17T02:13:05;9.10;;;5.25;;
70132;SDS011;57495;49.922;7.966;2023-08-17T02:15:07;7.25;;;5.10;;
70132;SDS011;57495;49.922;7.966;2023-08-17T02:17:09;6.88;;;4.55;;
70132;SDS011;57495;49.922;7.966;2023-08-17T02:19:10;10.38;;;5.28;;
70132;SDS011;57495;49.922;7.966;2023-08-17T02:21:12;11.27;;;5.23;;
70132;SDS011;57495;49.922;7.966;2023-08-17T02:23:13;6.85;;;4.32;;
70132;SDS011;57495;49.922;7.966;2023-08-17T02:25:15;6.47;;;3.80;;
70132;SDS011;57495;49.922;7.966;2023-08-17T02:27:16;7.68;;;4.53;;
70132;SDS011;57495;49.922;7.966;2023-08-17T02:29:19;7.70;;;4.40;;
70132;SDS011;57495;49.922;7.966;2023-08-17T02:31:21;8.27;;;5.00;;
70132;SDS011;57495;49.922;7.966;2023-08-17T02:33:22;10.45;;;5.32;;
70132;SDS011;57495;49.922;7.966;2023-08-17T02:35:24;9.88;;;5.85;;
70132;SDS011;57495;49.922;7.966;2023-08-17T02:37:25;9.43;;;5.68;;
70132;SDS011;57495;49.922;7.966;2023-08-17T02:39:27;8.38;;;5.57;;
70132;SDS011;57495;49.922;7.966;2023-08-17T02:41:28;8.77;;;5.37;;
70132;SDS011;57495;49.922;7.966;2023-08-17T02:43:32;7.70;;;5.47;;
70132;SDS011;57495;49.922;7.966;2023-08-17T02:45:34;7.90;;;5.78;;
70132;SDS011;57495;49.922;7.966;2023-08-17T02:47:36;7.68;;;5.60;;
70132;SDS011;57495;49.922;7.966;2023-08-17T02:49:37;8.15;;;6.00;;
70132;SDS011;57495;49.922;7.966;2023-08-17T02:51:39;9.30;;;6.10;;
70132;SDS011;57495;49.922;7.966;2023-08-17T02:53:40;9.85;;;6.78;;
70132;SDS011;57495;49.922;7.966;2023-08-17T02:55:42;8.85;;;6.20;;
70132;SDS011;57495;49.922;7.966;2023-08-17T02:57:43;9.52;;;6.90;;
70132;SDS011;57495;49.922;7.966;2023-08-17T02:59:45;8.57;;;6.18;;
70132;SDS011;57495;49.922;7.966;2023-08-17T03:01:47;9.67;;;5.80;;
70132;SDS011;57495;49.922;7.966;2023-08-17T03:03:49;7.03;;;4.78;;
70132;SDS011;57495;49.922;7.966;2023-08-17T03:05:51;7.28;;;5.05;;
70132;SDS011;57495;49.922;7.966;2023-08-17T03:07:52;8.45;;;4.50;;
70132;SDS011;57495;49.922;7.966;2023-08-17T03:09:53;9.50;;;4.68;;
70132;SDS011;57495;49.922;7.966;2023-08-17T03:11:55;7.23;;;4.23;;
70132;SDS011;57495;49.922;7.966;2023-08-17T03:13:56;7.28;;;4.45;;
70132;SDS011;57495;49.922;7.966;2023-08-17T03:16:00;9.70;;;4.78;;
70132;SDS011;57495;49.922;7.966;2023-08-17T03:18:03;6.70;;;4.28;;
70132;SDS011;57495;49.922;7.966;2023-08-17T03:20:05;6.50;;;3.95;;
70132;SDS011;57495;49.922;7.966;2023-08-17T03:22:07;6.97;;;4.10;;
70132;SDS011;57495;49.922;7.966;2023-08-17T03:24:08;9.95;;;4.90;;
70132;SDS011;57495;49.922;7.966;2023-08-17T03:26:09;9.23;;;5.65;;
70132;SDS011;57495;49.922;7.966;2023-08-17T03:28:10;10.00;;;4.87;;
70132;SDS011;57495;49.922;7.966;2023-08-17T03:30:11;7.90;;;5.95;;
70132;SDS011;57495;49.922;7.966;2023-08-17T03:32:13;8.73;;;6.30;;
70132;SDS011;57495;49.922;7.966;2023-08-17T03:34:15;11.80;;;7.60;;
70132;SDS011;57495;49.922;7.966;2023-08-17T03:36:17;16.30;;;8.10;;
70132;SDS011;57495;49.922;7.966;2023-08-17T03:38:18;12.82;;;8.77;;
70132;SDS011;57495;49.922;7.966;2023-08-17T03:40:20;13.35;;;8.63;;
70132;SDS011;57495;49.922;7.966;2023-08-17T03:42:21;12.47;;;8.63;;
70132;SDS011;57495;49.922;7.966;2023-08-17T03:44:23;13.07;;;8.63;;
70132;SDS011;57495;49.922;7.966;2023-08-17T03:46:24;11.85;;;8.32;;
70132;SDS011;57495;49.922;7.966;2023-08-17T03:48:25;14.30;;;7.28;;
70132;SDS011;57495;49.922;7.966;2023-08-17T03:50:28;10.43;;;7.28;;
70132;SDS011;57495;49.922;7.966;2023-08-17T03:52:30;10.13;;;7.13;;
70132;SDS011;57495;49.922;7.966;2023-08-17T03:54:31;10.80;;;7.65;;
70132;SDS011;57495;49.922;7.966;2023-08-17T03:56:33;12.15;;;6.93;;
70132;SDS011;57495;49.922;7.966;2023-08-17T03:58:34;10.10;;;6.88;;
70132;SDS011;57495;49.922;7.966;2023-08-17T04:00:35;11.05;;;6.85;;
70132;SDS011;57495;49.922;7.966;2023-08-17T04:02:36;12.13;;;6.97;;
70132;SDS011;57495;49.922;7.966;2023-08-17T04:04:38;10.73;;;6.65;;
70132;SDS011;57495;49.922;7.966;2023-08-17T04:06:40;11.33;;;6.50;;
70132;SDS011;57495;49.922;7.966;2023-08-17T04:08:41;10.23;;;6.68;;
70132;SDS011;57495;49.922;7.966;2023-08-17T04:10:42;10.68;;;7.00;;
70132;SDS011;57495;49.922;7.966;2023-08-17T04:12:44;10.05;;;6.68;;
70132;SDS011;57495;49.922;7.966;2023-08-17T04:14:45;10.03;;;6.80;;
70132;SDS011;57495;49.922;7.966;2023-08-17T04:16:46;9.02;;;5.97;;
70132;SDS011;57495;49.922;7.966;2023-08-17T04:18:47;9.52;;;6.15;;
70132;SDS011;57495;49.922;7.966;2023-08-17T04:20:49;10.53;;;6.93;;
70132;SDS011;57495;49.922;7.966;2023-08-17T04:22:52;10.00;;;6.75;;
70132;SDS011;57495;49.922;7.966;2023-08-17T04:24:54;10.85;;;7.03;;
70132;SDS011;57495;49.922;7.966;2023-08-17T04:26:55;10.88;;;6.72;;
70132;SDS011;57495;49.922;7.966;2023-08-17T04:28:56;10.18;;;6.40;;
70132;SDS011;57495;49.922;7.966;2023-08-17T04:30:58;13.13;;;6.27;;
70132;SDS011;57495;49.922;7.966;2023-08-17T04:32:59;10.93;;;6.40;;
70132;SDS011;57495;49.922;7.966;2023-08-17T04:35:01;9.98;;;6.57;;
70132;SDS011;57495;49.922;7.966;2023-08-17T04:37:02;11.45;;;6.25;;
70132;SDS011;57495;49.922;7.966;2023-08-17T04:39:05;9.95;;;5.70;;
70132;SDS011;57495;49.922;7.966;2023-08-17T04:41:08;7.90;;;5.60;;
70132;SDS011;57495;49.922;7.966;2023-08-17T04:43:09;10.07;;;6.40;;
70132;SDS011;57495;49.922;7.966;2023-08-17T04:45:10;9.55;;;5.68;;
70132;SDS011;57495;49.922;7.966;2023-08-17T04:47:12;11.02;;;5.63;;
70132;SDS011;57495;49.922;7.966;2023-08-17T04:49:14;8.30;;;4.90;;
70132;SDS011;57495;49.922;7.966;2023-08-17T04:51:15;9.17;;;5.70;;
70132;SDS011;57495;49.922;7.966;2023-08-17T04:53:17;7.97;;;4.93;;
70132;SDS011;57495;49.922;7.966;2023-08-17T04:55:20;9.60;;;5.75;;
70132;SDS011;57495;49.922;7.966;2023-08-17T04:57:21;9.95;;;5.10;;
70132;SDS011;57495;49.922;7.966;2023-08-17T04:59:22;8.60;;;5.50;;
70132;SDS011;57495;49.922;7.966;2023-08-17T05:01:24;8.53;;;4.57;;
70132;SDS011;57495;49.922;7.966;2023-08-17T05:03:25;8.75;;;5.15;;
70132;SDS011;57495;49.922;7.966;2023-08-17T05:05:27;7.15;;;4.82;;
70132;SDS011;57495;49.922;7.966;2023-08-17T05:07:27;8.00;;;5.57;;
70132;SDS011;57495;49.922;7.966;2023-08-17T05:09:29;8.60;;;5.75;;
70132;SDS011;57495;49.922;7.966;2023-08-17T05:11:32;10.00;;;5.57;;
70132;SDS011;57495;49.922;7.966;2023-08-17T05:13:33;7.75;;;4.93;;
70132;SDS011;57495;49.922;7.966;2023-08-17T05:15:34;8.30;;;5.10;;
70132;SDS011;57495;49.922;7.966;2023-08-17T05:17:36;7.40;;;4.50;;
70132;SDS011;57495;49.922;7.966;2023-08-17T05:19:37;7.85;;;4.55;;
70132;SDS011;57495;49.922;7.966;2023-08-17T05:21:41;6.88;;;3.13;;
70132;SDS011;57495;49.922;7.966;2023-08-17T05:23:42;7.03;;;3.03;;
70132;SDS011;57495;49.922;7.966;2023-08-17T05:25:45;4.27;;;2.40;;
70132;SDS011;57495;49.922;7.966;2023-08-17T05:27:48;5.05;;;2.58;;
70132;SDS011;57495;49.922;7.966;2023-08-17T05:29:50;3.95;;;1.75;;
70132;SDS011;57495;49.922;7.966;2023-08-17T05:31:51;4.47;;;2.20;;
70132;SDS011;57495;49.922;7.966;2023-08-17T05:33:52;3.90;;;1.90;;
70132;SDS011;57495;49.922;7.966;2023-08-17T05:35:53;5.18;;;2.42;;
70132;SDS011;57495;49.922;7.966;2023-08-17T05:37:55;5.30;;;1.63;;
70132;SDS011;57495;49.922;7.966;2023-08-17T05:39:56;4.60;;;2.33;;
70132;SDS011;57495;49.922;7.966;2023-08-17T05:41:58;4.07;;;1.80;;
70132;SDS011;57495;49.922;7.966;2023-08-17T05:44:01;5.10;;;1.80;;
70132;SDS011;57495;49.922;7.966;2023-08-17T05:46:03;3.80;;;1.80;;
70132;SDS011;57495;49.922;7.966;2023-08-17T05:48:05;3.53;;;1.50;;
70132;SDS011;57495;49.922;7.966;2023-08-17T05:50:07;3.67;;;1.63;;
70132;SDS011;57495;49.922;7.966;2023-08-17T05:52:09;4.40;;;1.40;;
70132;SDS011;57495;49.922;7.966;2023-08-17T05:54:10;3.53;;;1.48;;
70132;SDS011;57495;49.922;7.966;2023-08-17T05:56:11;4.60;;;1.50;;
70132;SDS011;57495;49.922;7.966;2023-08-17T05:58:13;7.03;;;1.42;;
70132;SDS011;57495;49.922;7.966;2023-08-17T06:00:15;2.83;;;0.83;;
70132;SDS011;57495;49.922;7.966;2023-08-17T06:02:16;2.33;;;0.70;;
70132;SDS011;57495;49.922;7.966;2023-08-17T06:04:18;2.55;;;0.88;;
70132;SDS011;57495;49.922;7.966;2023-08-17T06:06:20;1.92;;;0.45;;
70132;SDS011;57495;49.922;7.966;2023-08-17T06:08:22;1.73;;;0.50;;
70132;SDS011;57495;49.922;7.966;2023-08-17T06:10:23;3.35;;;0.60;;
70132;SDS011;57495;49.922;7.966;2023-08-17T06:12:26;3.28;;;0.45;;
70132;SDS011;57495;49.922;7.966;2023-08-17T06:14:27;2.13;;;0.40;;
70132;SDS011;57495;49.922;7.966;2023-08-17T06:16:30;2.08;;;0.45;;
70132;SDS011;57495;49.922;7.966;2023-08-17T06:18:31;1.87;;;0.40;;
70132;SDS011;57495;49.922;7.966;2023-08-17T06:20:32;4.80;;;1.00;;
70132;SDS011;57495;49.922;7.966;2023-08-17T06:22:33;1.75;;;0.40;;
70132;SDS011;57495;49.922;7.966;2023-08-17T06:24:34;3.33;;;0.63;;
70132;SDS011;57495;49.922;7.966;2023-08-17T06:26:36;2.22;;;0.90;;
70132;SDS011;57495;49.922;7.966;2023-08-17T06:28:38;2.83;;;1.00;;
70132;SDS011;57495;49.922;7.966;2023-08-17T06:30:39;3.05;;;0.80;;
70132;SDS011;57495;49.922;7.966;2023-08-17T06:32:42;4.25;;;1.33;;
70132;SDS011;57495;49.922;7.966;2023-08-17T06:34:43;3.50;;;0.93;;
70132;SDS011;57495;49.922;7.966;2023-08-17T06:36:53;2.88;;;0.90;;
70132;SDS011;57495;49.922;7.966;2023-08-17T06:38:57;3.45;;;1.00;;
70132;SDS011;57495;49.922;7.966;2023-08-17T06:40:59;4.80;;;1.00;;
70132;SDS011;57495;49.922;7.966;2023-08-17T06:43:00;3.35;;;1.30;;
70132;SDS011;57495;49.922;7.966;2023-08-17T06:45:02;3.33;;;1.20;;
70132;SDS011;57495;49.922;7.966;2023-08-17T06:47:04;3.58;;;1.10;;
70132;SDS011;57495;49.922;7.966;2023-08-17T06:49:07;3.88;;;1.17;;
70132;SDS011;57495;49.922;7.966;2023-08-17T06:51:08;3.45;;;1.30;;
70132;SDS011;57495;49.922;7.966;2023-08-17T06:53:10;3.13;;;1.27;;
70132;SDS011;57495;49.922;7.966;2023-08-17T06:55:12;3.60;;;0.90;;
70132;SDS011;57495;49.922;7.966;2023-08-17T06:57:12;4.35;;;1.75;;
70132;SDS011;57495;49.922;7.966;2023-08-17T06:59:14;5.70;;;2.23;;
70132;SDS011;57495;49.922;7.966;2023-08-17T07:01:15;5.82;;;1.98;;
70132;SDS011;57495;49.922;7.966;2023-08-17T07:03:16;3.45;;;1.40;;
70132;SDS011;57495;49.922;7.966;2023-08-17T07:05:18;3.50;;;1.60;;
70132;SDS011;57495;49.922;7.966;2023-08-17T07:07:20;3.78;;;1.52;;
70132;SDS011;57495;49.922;7.966;2023-08-17T07:09:21;4.60;;;1.30;;
70132;SDS011;57495;49.922;7.966;2023-08-17T07:11:22;2.83;;;0.80;;
70132;SDS011;57495;49.922;7.966;2023-08-17T07:13:23;2.83;;;0.90;;
70132;SDS011;57495;49.922;7.966;2023-08-17T07:15:24;2.63;;;0.80;;
70132;SDS011;57495;49.922;7.966;2023-08-17T07:17:25;2.88;;;1.13;;
70132;SDS011;57495;49.922;7.966;2023-08-17T07:19:27;2.97;;;0.88;;
70132;SDS011;57495;49.922;7.966;2023-08-17T07:21:29;2.08;;;0.65;;
70132;SDS011;57495;49.922;7.966;2023-08-17T07:23:31;2.47;;;0.68;;
70132;SDS011;57495;49.922;7.966;2023-08-17T07:25:32;2.40;;;0.80;;
70132;SDS011;57495;49.922;7.966;2023-08-17T07:27:34;2.92;;;1.23;;
70132;SDS011;57495;49.922;7.966;2023-08-17T07:29:34;2.67;;;0.90;;
70132;SDS011;57495;49.922;7.966;2023-08-17T07:31:36;2.42;;;0.60;;
70132;SDS011;57495;49.922;7.966;2023-08-17T07:33:38;2.33;;;0.40;;
70132;SDS011;57495;49.922;7.966;2023-08-17T07:35:39;2.20;;;0.60;;
70132;SDS011;57495;49.922;7.966;2023-08-17T07:37:42;5.63;;;0.80;;
70132;SDS011;57495;49.922;7.966;2023-08-17T07:39:44;3.00;;;1.10;;
70132;SDS011;57495;49.922;7.966;2023-08-17T07:41:45;2.72;;;1.13;;
70132;SDS011;57495;49.922;7.966;2023-08-17T07:43:47;2.70;;;1.10;;
70132;SDS011;57495;49.922;7.966;2023-08-17T07:45:52;4.70;;;1.80;;
70132;SDS011;57495;49.922;7.966;2023-08-17T07:47:54;2.60;;;1.40;;
70132;SDS011;57495;49.922;7.966;2023-08-17T07:49:56;3.30;;;2.10;;
70132;SDS011;57495;49.922;7.966;2023-08-17T07:51:58;3.25;;;1.58;;
70132;SDS011;57495;49.922;7.966;2023-08-17T07:54:01;4.20;;;1.92;;
70132;SDS011;57495;49.922;7.966;2023-08-17T07:56:03;3.35;;;2.00;;
70132;SDS011;57495;49.922;7.966;2023-08-17T07:58:04;4.65;;;3.05;;
70132;SDS011;57495;49.922;7.966;2023-08-17T08:00:07;3.50;;;0.97;;
70132;SDS011;57495;49.922;7.966;2023-08-17T08:02:08;3.42;;;1.13;;
70132;SDS011;57495;49.922;7.966;2023-08-17T08:04:10;3.70;;;1.10;;
70132;SDS011;57495;49.922;7.966;2023-08-17T08:06:11;2.92;;;1.00;;
70132;SDS011;57495;49.922;7.966;2023-08-17T08:08:13;4.50;;;1.50;;
70132;SDS011;57495;49.922;7.966;2023-08-17T08:10:17;3.17;;;0.90;;
70132;SDS011;57495;49.922;7.966;2023-08-17T08:12:19;3.22;;;0.82;;
70132;SDS011;57495;49.922;7.966;2023-08-17T08:14:20;3.80;;;1.10;;
70132;SDS011;57495;49.922;7.966;2023-08-17T08:16:21;2.85;;;0.98;;
70132;SDS011;57495;49.922;7.966;2023-08-17T08:18:23;3.13;;;0.90;;
70132;SDS011;57495;49.922;7.966;2023-08-17T08:20:24;2.53;;;1.00;;
70132;SDS011;57495;49.922;7.966;2023-08-17T08:22:26;2.50;;;0.90;;
70132;SDS011;57495;49.922;7.966;2023-08-17T08:24:27;2.70;;;1.10;;
70132;SDS011;57495;49.922;7.966;2023-08-17T08:26:35;2.28;;;0.70;;
70132;SDS011;57495;49.922;7.966;2023-08-17T08:28:36;2.83;;;1.00;;
70132;SDS011;57495;49.922;7.966;2023-08-17T08:30:37;2.80;;;1.00;;
70132;SDS011;57495;49.922;7.966;2023-08-17T08:32:39;3.05;;;1.13;;
70132;SDS011;57495;49.922;7.966;2023-08-17T08:34:40;2.58;;;1.08;;
70132;SDS011;57495;49.922;7.966;2023-08-17T08:36:42;3.15;;;1.00;;
70132;SDS011;57495;49.922;7.966;2023-08-17T08:38:43;2.38;;;0.82;;
70132;SDS011;57495;49.922;7.966;2023-08-17T08:40:45;2.90;;;0.80;;
70132;SDS011;57495;49.922;7.966;2023-08-17T08:42:49;2.63;;;0.80;;
70132;SDS011;57495;49.922;7.966;2023-08-17T08:44:50;2.83;;;0.80;;
70132;SDS011;57495;49.922;7.966;2023-08-17T08:46:52;3.25;;;0.65;;
70132;SDS011;57495;49.922;7.966;2023-08-17T08:48:56;3.17;;;0.90;;
70132;SDS011;57495;49.922;7.966;2023-08-17T08:50:59;2.60;;;0.73;;
70132;SDS011;57495;49.922;7.966;2023-08-17T08:53:00;2.72;;;0.93;;
70132;SDS011;57495;49.922;7.966;2023-08-17T08:55:11;2.30;;;1.00;;
70132;SDS011;57495;49.922;7.966;2023-08-17T08:57:16;2.40;;;0.80;;
70132;SDS011;57495;49.922;7.966;2023-08-17T08:59:20;2.28;;;0.82;;
70132;SDS011;57495;49.922;7.966;2023-08-17T09:01:21;2.40;;;0.60;;
70132;SDS011;57495;49.922;7.966;2023-08-17T09:03:23;3.58;;;0.68;;
70132;SDS011;57495;49.922;7.966;2023-08-17T09:05:26;2.35;;;0.50;;
70132;SDS011;57495;49.922;7.966;2023-08-17T09:07:28;3.97;;;0.40;;
70132;SDS011;57495;49.922;7.966;2023-08-17T09:09:31;2.63;;;0.57;;
70132;SDS011;57495;49.922;7.966;2023-08-17T09:11:33;1.97;;;0.40;;
70132;SDS011;57495;49.922;7.966;2023-08-17T09:13:34;2.58;;;0.70;;
70132;SDS011;57495;49.922;7.966;2023-08-17T09:15:37;1.90;;;0.77;;
70132;SDS011;57495;49.922;7.966;2023-08-17T09:17:38;2.30;;;0.80;;
70132;SDS011;57495;49.922;7.966;2023-08-17T09:19:40;2.35;;;0.70;;
70132;SDS011;57495;49.922;7.966;2023-08-17T09:21:41;3.20;;;2.20;;
70132;SDS011;57495;49.922;7.966;2023-08-17T09:23:42;2.90;;;2.00;;
70132;SDS011;57495;49.922;7.966;2023-08-17T09:25:44;3.10;;;2.28;;
70132;SDS011;57495;49.922;7.966;2023-08-17T09:27:47;3.60;;;2.20;;
70132;SDS011;57495;49.922;7.966;2023-08-17T09:29:48;3.05;;;2.10;;
70132;SDS011;57495;49.922;7.966;2023-08-17T09:31:51;4.10;;;3.30;;
70132;SDS011;57495;49.922;7.966;2023-08-17T09:33:52;3.88;;;2.95;;
70132;SDS011;57495;49.922;7.966;2023-08-17T09:35:54;4.88;;;4.43;;
70132;SDS011;57495;49.922;7.966;2023-08-17T09:37:57;4.07;;;3.67;;
70132;SDS011;57495;49.922;7.966;2023-08-17T09:39:58;4.25;;;3.28;;
70132;SDS011;57495;49.922;7.966;2023-08-17T09:42:00;4.00;;;3.23;;
70132;SDS011;57495;49.922;7.966;2023-08-17T09:44:02;3.65;;;3.25;;
70132;SDS011;57495;49.922;7.966;2023-08-17T09:46:04;3.83;;;1.92;;
70132;SDS011;57495;49.922;7.966;2023-08-17T09:48:08;2.75;;;0.80;;
70132;SDS011;57495;49.922;7.966;2023-08-17T09:50:10;2.45;;;1.00;;
70132;SDS011;57495;49.922;7.966;2023-08-17T09:52:11;3.43;;;0.90;;
70132;SDS011;57495;49.922;7.966;2023-08-17T09:54:19;2.10;;;0.80;;
70132;SDS011;57495;49.922;7.966;2023-08-17T09:56:22;2.13;;;0.90;;
70132;SDS011;57495;49.922;7.966;2023-08-17T09:58:25;3.08;;;0.90;;
70132;SDS011;57495;49.922;7.966;2023-08-17T10:00:26;2.92;;;1.05;;
70132;SDS011;57495;49.922;7.966;2023-08-17T10:02:27;2.37;;;0.63;;
70132;SDS011;57495;49.922;7.966;2023-08-17T10:04:32;2.40;;;1.08;;
70132;SDS011;57495;49.922;7.966;2023-08-17T10:06:36;2.45;;;0.90;;
70132;SDS011;57495;49.922;7.966;2023-08-17T10:08:43;2.55;;;1.10;;
70132;SDS011;57495;49.922;7.966;2023-08-17T10:10:46;3.90;;;1.38;;
70132;SDS011;57495;49.922;7.966;2023-08-17T10:12:49;3.50;;;1.00;;
70132;SDS011;57495;49.922;7.966;2023-08-17T10:14:59;2.40;;;0.80;;
70132;SDS011;57495;49.922;7.966;2023-08-17T10:17:04;3.88;;;1.20;;
70132;SDS011;57495;49.922;7.966;2023-08-17T10:19:11;3.70;;;1.00;;
70132;SDS011;57495;49.922;7.966;2023-08-17T10:21:21;3.33;;;1.08;;
70132;SDS011;57495;49.922;7.966;2023-08-17T10:23:26;4.07;;;1.10;;
70132;SDS011;57495;49.922;7.966;2023-08-17T10:25:28;2.67;;;1.08;;
70132;SDS011;57495;49.922;7.966;2023-08-17T10:27:31;2.85;;;1.17;;
70132;SDS011;57495;49.922;7.966;2023-08-17T10:29:34;2.33;;;1.05;;
70132;SDS011;57495;49.922;7.966;2023-08-17T10:31:37;3.55;;;1.17;;
70132;SDS011;57495;49.922;7.966;2023-08-17T10:33:39;3.40;;;1.23;;
70132;SDS011;57495;49.922;7.966;2023-08-17T10:35:44;3.67;;;1.10;;
70132;SDS011;57495;49.922;7.966;2023-08-17T10:37:48;3.50;;;1.20;;
70132;SDS011;57495;49.922;7.966;2023-08-17T10:39:50;2.95;;;1.20;;
70132;SDS011;57495;49.922;7.966;2023-08-17T10:41:53;3.60;;;1.20;;
70132;SDS011;57495;49.922;7.966;2023-08-17T10:43:55;3.83;;;1.20;;
70132;SDS011;57495;49.922;7.966;2023-08-17T10:45:58;4.15;;;1.40;;
70132;SDS011;57495;49.922;7.966;2023-08-17T10:48:26;3.17;;;1.40;;
70132;SDS011;57495;49.922;7.966;2023-08-17T10:50:30;3.67;;;1.50;;
70132;SDS011;57495;49.922;7.966;2023-08-17T10:52:33;2.83;;;1.20;;
70132;SDS011;57495;49.922;7.966;2023-08-17T10:54:37;2.70;;;0.90;;
70132;SDS011;57495;49.922;7.966;2023-08-17T10:56:39;3.55;;;1.05;;
70132;SDS011;57495;49.922;7.966;2023-08-17T10:58:42;3.22;;;1.23;;
70132;SDS011;57495;49.922;7.966;2023-08-17T11:00:44;3.03;;;1.00;;
70132;SDS011;57495;49.922;7.966;2023-08-17T11:02:48;3.50;;;1.27;;
70132;SDS011;57495;49.922;7.966;2023-08-17T11:04:53;2.67;;;1.10;;
70132;SDS011;57495;49.922;7.966;2023-08-17T11:09:05;3.10;;;1.15;;
70132;SDS011;57495;49.922;7.966;2023-08-17T11:11:11;3.42;;;1.15;;
70132;SDS011;57495;49.922;7.966;2023-08-17T11:13:13;3.05;;;1.13;;
70132;SDS011;57495;49.922;7.966;2023-08-17T11:15:15;5.40;;;1.40;;
70132;SDS011;57495;49.922;7.966;2023-08-17T11:17:16;3.30;;;1.10;;
70132;SDS011;57495;49.922;7.966;2023-08-17T11:19:18;3.30;;;1.73;;
70132;SDS011;57495;49.922;7.966;2023-08-17T11:21:20;3.70;;;1.30;;
70132;SDS011;57495;49.922;7.966;2023-08-17T11:23:22;3.33;;;1.17;;
70132;SDS011;57495;49.922;7.966;2023-08-17T11:25:25;3.77;;;1.23;;
70132;SDS011;57495;49.922;7.966;2023-08-17T11:27:29;3.17;;;1.20;;
70132;SDS011;57495;49.922;7.966;2023-08-17T11:29:31;2.60;;;1.15;;
70132;SDS011;57495;49.922;7.966;2023-08-17T11:31:33;2.92;;;1.33;;
70132;SDS011;57495;49.922;7.966;2023-08-17T11:33:34;4.82;;;1.60;;
70132;SDS011;57495;49.922;7.966;2023-08-17T11:35:37;4.60;;;1.60;;
70132;SDS011;57495;49.922;7.966;2023-08-17T11:37:39;5.50;;;1.40;;
70132;SDS011;57495;49.922;7.966;2023-08-17T11:39:41;3.15;;;1.40;;
70132;SDS011;57495;49.922;7.966;2023-08-17T11:41:42;2.90;;;1.35;;
70132;SDS011;57495;49.922;7.966;2023-08-17T11:43:45;3.70;;;1.20;;
70132;SDS011;57495;49.922;7.966;2023-08-17T11:45:47;3.23;;;1.00;;
70132;SDS011;57495;49.922;7.966;2023-08-17T11:47:49;2.50;;;1.13;;
70132;SDS011;57495;49.922;7.966;2023-08-17T11:49:58;2.88;;;1.35;;
70132;SDS011;57495;49.922;7.966;2023-08-17T11:51:59;4.00;;;1.30;;
70132;SDS011;57495;49.922;7.966;2023-08-17T11:54:00;2.65;;;1.17;;
70132;SDS011;57495;49.922;7.966;2023-08-17T11:56:04;2.90;;;1.43;;
70132;SDS011;57495;49.922;7.966;2023-08-17T11:58:06;5.20;;;1.38;;
70132;SDS011;57495;49.922;7.966;2023-08-17T12:00:10;4.20;;;1.40;;
70132;SDS011;57495;49.922;7.966;2023-08-17T12:02:18;3.03;;;1.15;;
70132;SDS011;57495;49.922;7.966;2023-08-17T12:04:20;3.60;;;1.00;;
70132;SDS011;57495;49.922;7.966;2023-08-17T12:06:22;2.80;;;1.20;;
70132;SDS011;57495;49.922;7.966;2023-08-17T12:08:24;3.30;;;1.15;;
70132;SDS011;57495;49.922;7.966;2023-08-17T12:10:27;6.15;;;1.30;;
70132;SDS011;57495;49.922;7.966;2023-08-17T12:12:28;5.32;;;1.17;;
70132;SDS011;57495;49.922;7.966;2023-08-17T12:14:29;2.90;;;1.30;;
70132;SDS011;57495;49.922;7.966;2023-08-17T12:16:32;3.15;;;1.33;;